Time;durP1;ratioP1;P1;durP2;ratioP2;P2;SDS_P1;SDS_P2;PMS_P1;PMS_P2;Temp;Humidity;BMP_temperature;BMP_pressure;BME280_temperature;BME280_humidity;BME280_pressure;Samples;Min_cycle;Max_cycle;Signal;HPM_P1;HPM_P2
2021/03/29 00:00:43;;;;;;;139.75;79.00;;;;;;;1.04;70.50;100375.44;113570;1200;64366;-82
2021/03/29 00:03:22;;;;;;;144.70;77.10;;;;;;;1.05;70.41;100374.54;113643;1200;64407;-82
2021/03/29 00:05:48;;;;;;;145.83;82.37;;;;;;;1.04;70.90;100371.05;113651;1199;64359;-82
2021/03/29 00:08:21;;;;;;;147.23;83.10;;;;;;;1.01;70.46;100373.70;113618;1200;64471;-83
2021/03/29 00:10:50;;;;;;;161.10;85.67;;;;;;;0.98;70.52;100373.72;113636;1200;64548;-82
2021/03/29 00:13:19;;;;;;;172.03;90.43;;;;;;;0.92;70.38;100371.11;113614;1199;64442;-82
2021/03/29 00:15:49;;;;;;;145.93;82.40;;;;;;;0.89;70.50;100373.75;113665;1199;64369;-82
2021/03/29 00:18:18;;;;;;;146.95;80.05;;;;;;;0.85;70.67;100375.54;113674;1199;64393;-84
2021/03/29 00:21:07;;;;;;;148.65;82.60;;;;;;;0.82;70.82;100366.82;113607;1200;64525;-83
2021/03/29 00:23:35;;;;;;;152.43;84.27;;;;;;;0.80;70.88;100371.20;113722;1199;64490;-83
2021/03/29 00:26:05;;;;;;;146.97;85.57;;;;;;;0.76;70.86;100370.31;113626;1200;64414;-83
2021/03/29 00:28:33;;;;;;;;;;;;;;;0.73;70.81;100367.72;113720;1207;64355;-83
2021/03/29 00:31:01;;;;;;;143.90;76.50;;;;;;;0.69;70.83;100370.39;113608;1199;64385;-83
2021/03/29 00:33:29;;;;;;;153.30;84.85;;;;;;;0.70;71.21;100367.73;113684;1199;64439;-83
2021/03/29 00:35:57;;;;;;;166.20;91.55;;;;;;;0.73;71.20;100372.09;113660;1199;64464;-83
2021/03/29 00:38:24;;;;;;;142.85;86.05;;;;;;;0.76;71.30;100374.70;113655;1200;64413;-83
2021/03/29 00:40:57;;;;;;;163.55;92.75;;;;;;;0.74;71.46;100382.59;113703;1200;64378;-83
2021/03/29 00:43:27;;;;;;;167.30;94.63;;;;;;;0.72;71.23;100373.86;113639;1200;64353;-83
2021/03/29 00:45:56;;;;;;;162.95;90.35;;;;;;;0.71;71.46;100368.59;113625;1199;64481;-83
2021/03/29 00:48:25;;;;;;;160.90;89.57;;;;;;;0.70;71.32;100377.36;113647;1200;64321;-83
2021/03/29 00:51:14;;;;;;;152.55;86.88;;;;;;;0.69;71.43;100367.77;113708;1200;64403;-83
2021/03/29 00:53:47;;;;;;;173.77;96.23;;;;;;;0.72;71.79;100373.86;113667;1200;64388;-83
2021/03/29 00:56:14;;;;;;;179.60;99.30;;;;;;;0.83;71.66;100373.80;113718;1200;64461;-82
2021/03/29 00:58:44;;;;;;;172.10;94.77;;;;;;;0.87;71.79;100367.67;113700;1200;64420;-83
2021/03/29 01:01:41;;;;;;;158.43;89.80;;;;;;;0.93;71.89;100362.38;113772;1200;64391;-83
2021/03/29 01:04:09;;;;;;;146.07;82.93;;;;;;;0.92;71.72;100367.63;113874;1200;64363;-83
2021/03/29 01:06:40;;;;;;;148.17;87.87;;;;;;;0.89;71.60;100368.51;113854;1200;64579;-84
2021/03/29 01:09:15;;;;;;;167.03;93.37;;;;;;;0.85;71.85;100372.91;113732;1199;64378;-83
2021/03/29 01:11:47;;;;;;;164.40;89.90;;;;;;;0.81;71.59;100358.05;113667;1200;64525;-83
2021/03/29 01:14:21;;;;;;;159.10;86.95;;;;;;;0.78;71.67;100368.56;113636;1199;64474;-83
2021/03/29 01:16:57;;;;;;;164.97;89.07;;;;;;;0.74;71.50;100368.58;113648;1199;64403;-82
2021/03/29 01:19:46;;;;;;;151.03;87.43;;;;;;;0.75;71.91;100376.45;113600;1200;64317;-82
2021/03/29 01:22:20;;;;;;;168.57;94.30;;;;;;;0.80;72.20;100373.82;113639;1200;64391;-81
2021/03/29 01:24:52;;;;;;;180.97;101.43;;;;;;;0.87;72.31;100373.78;113698;1200;64356;-82
2021/03/29 01:27:29;;;;;;;191.87;107.50;;;;;;;0.93;72.29;100372.88;113605;1199;64431;-82
2021/03/29 01:29:58;;;;;;;181.37;104.57;;;;;;;0.94;72.48;100384.23;113589;1199;64495;-82
2021/03/29 01:32:25;;;;;;;199.33;111.13;;;;;;;0.98;72.45;100378.11;113735;1199;64368;-82
2021/03/29 01:34:53;;;;;;;202.97;109.33;;;;;;;1.03;72.55;100378.95;113665;1199;64388;-82
2021/03/29 01:37:21;;;;;;;199.23;111.37;;;;;;;1.12;72.76;100383.27;113649;1199;64500;-82
2021/03/29 01:39:50;;;;;;;189.37;116.60;;;;;;;1.22;72.83;100384.95;113672;1199;64509;-82
2021/03/29 01:42:18;;;;;;;187.70;118.07;;;;;;;1.27;72.97;100391.92;113753;1200;64439;-84
2021/03/29 01:44:46;;;;;;;189.00;116.85;;;;;;;1.31;73.23;100383.12;113760;1199;64429;-82
2021/03/29 01:47:13;;;;;;;181.33;116.77;;;;;;;1.35;72.84;100383.13;113720;1199;64416;-83
2021/03/29 01:49:40;;;;;;;180.57;108.90;;;;;;;1.36;73.01;100372.59;113663;1199;64417;-84
2021/03/29 01:52:07;;;;;;;177.97;108.53;;;;;;;1.40;72.86;100376.09;113597;1199;64413;-82
2021/03/29 01:54:35;;;;;;;187.25;116.90;;;;;;;1.46;72.91;100376.89;113649;1200;64462;-82
2021/03/29 01:57:07;;;;;;;193.90;115.95;;;;;;;1.58;72.95;100375.94;113594;1200;64419;-83
2021/03/29 01:59:33;;;;;;;184.60;116.33;;;;;;;1.66;72.95;100373.22;113656;1200;64359;-83
2021/03/29 02:02:02;;;;;;;191.55;119.05;;;;;;;1.64;72.81;100375.02;113617;1200;64379;-82
2021/03/29 02:04:29;;;;;;;185.37;116.30;;;;;;;1.64;72.69;100375.02;113590;1200;64318;-82
2021/03/29 02:06:57;;;;;;;175.13;106.43;;;;;;;1.62;72.78;100382.03;113598;1199;64413;-83
2021/03/29 02:09:25;;;;;;;155.10;96.27;;;;;;;1.59;72.84;100377.67;113624;1200;64468;-83
2021/03/29 02:11:53;;;;;;;150.40;90.27;;;;;;;1.57;72.76;100370.69;113613;1199;64451;-82
2021/03/29 02:14:21;;;;;;;148.07;89.13;;;;;;;1.50;72.77;100362.86;113709;1199;64670;-82
2021/03/29 02:16:47;;;;;;;160.43;96.67;;;;;;;1.50;72.89;100369.84;113671;1200;64458;-83
2021/03/29 02:19:17;;;;;;;164.85;96.05;;;;;;;1.45;72.96;100362.03;113666;1199;64382;-82
2021/03/29 02:21:45;;;;;;;159.10;99.25;;;;;;;1.41;72.85;100362.05;113634;1199;64375;-82
2021/03/29 02:24:12;;;;;;;174.10;105.65;;;;;;;1.38;72.81;100364.71;113653;1199;64368;-82
2021/03/29 02:26:42;;;;;;;154.37;96.27;;;;;;;1.34;73.07;100363.84;113615;1199;64356;-83
2021/03/29 02:29:10;;;;;;;152.98;93.40;;;;;;;1.32;73.16;100373.52;113691;1200;64362;-83
2021/03/29 02:31:37;;;;;;;149.15;90.70;;;;;;;1.29;73.13;100374.41;113640;1200;64458;-82
2021/03/29 02:34:07;;;;;;;153.30;91.97;;;;;;;1.31;73.26;100374.38;113637;1200;64795;-83
2021/03/29 02:36:34;;;;;;;171.37;106.07;;;;;;;1.34;73.22;100378.73;113649;1199;64445;-82
2021/03/29 02:39:01;;;;;;;181.10;110.70;;;;;;;1.41;73.41;100372.56;113640;1200;64385;-83
2021/03/29 02:41:30;;;;;;;172.80;108.65;;;;;;;1.49;73.52;100376.00;113617;1200;64385;-83
2021/03/29 02:43:58;;;;;;;160.00;101.60;;;;;;;1.52;73.53;100371.58;113673;1199;64381;-83
2021/03/29 02:46:29;;;;;;;149.97;91.80;;;;;;;1.51;73.18;100374.23;113660;1200;64384;-83
2021/03/29 02:48:58;;;;;;;141.70;91.25;;;;;;;1.53;73.49;100375.97;113716;1199;64366;-83
2021/03/29 02:51:25;;;;;;;142.28;88.85;;;;;;;1.51;73.52;100376.86;113713;1200;64356;-83
2021/03/29 02:54:07;;;;;;;149.67;95.03;;;;;;;1.57;73.37;100383.83;113659;1199;64396;-83
2021/03/29 02:56:55;;;;;;;155.37;102.77;;;;;;;1.60;73.43;100376.78;113648;1199;64477;-83
2021/03/29 02:59:22;;;;;;;163.20;105.33;;;;;;;1.60;73.42;100378.54;113640;1200;64461;-83
2021/03/29 03:01:51;;;;;;;172.30;109.13;;;;;;;1.61;73.56;100382.92;113631;1199;64487;-82
2021/03/29 03:04:19;;;;;;;172.60;110.55;;;;;;;1.64;73.86;100389.02;113644;1200;64419;-82
2021/03/29 03:06:46;;;;;;;160.37;104.93;;;;;;;1.65;73.59;100377.61;113711;1200;64509;-82
2021/03/29 03:09:14;;;;;;;141.15;95.10;;;;;;;1.68;73.75;100390.72;113595;1199;64391;-82
2021/03/29 03:11:45;;;;;;;141.67;89.03;;;;;;;1.70;73.67;100385.47;113611;1199;64379;-82
2021/03/29 03:14:12;;;;;;;142.83;88.83;;;;;;;1.70;73.79;100388.95;113615;1200;64359;-82
2021/03/29 03:16:39;;;;;;;145.33;96.03;;;;;;;1.73;73.90;100378.41;113654;1199;64407;-82
2021/03/29 03:19:07;;;;;;;165.40;100.90;;;;;;;1.77;73.83;100384.53;113613;1199;64406;-82
2021/03/29 03:21:35;;;;;;;158.70;105.87;;;;;;;1.79;73.98;100381.88;113603;1199;64449;-82
2021/03/29 03:24:04;;;;;;;163.13;103.00;;;;;;;1.77;73.95;100376.66;113611;1199;64388;-83
2021/03/29 03:26:31;;;;;;;159.47;102.77;;;;;;;1.77;74.12;100381.04;113462;1200;64347;-83
2021/03/29 03:28:59;;;;;;;160.20;102.57;;;;;;;1.77;74.08;100378.41;113621;1200;64643;-83
2021/03/29 03:31:26;;;;;;;150.20;97.25;;;;;;;1.77;74.08;100381.91;113623;1200;64471;-83
2021/03/29 03:33:54;;;;;;;148.07;91.83;;;;;;;1.78;74.05;100367.00;113651;1199;64365;-83
2021/03/29 03:36:25;;;;;;;140.47;91.47;;;;;;;1.81;74.04;100377.48;113637;1200;64356;-83
2021/03/29 03:38:53;;;;;;;150.35;95.60;;;;;;;1.86;74.20;100381.81;113623;1199;64388;-83
2021/03/29 03:41:28;;;;;;;167.57;101.37;;;;;;;1.87;74.22;100378.31;113651;1199;64446;-83
2021/03/29 03:43:56;;;;;;;150.23;98.93;;;;;;;1.91;74.37;100376.52;113651;1199;64949;-83
2021/03/29 03:46:35;;;;;;;158.00;102.50;;;;;;;1.88;74.23;100368.66;113577;1200;64327;-83
2021/03/29 03:49:15;;;;;;;167.40;102.75;;;;;;;1.87;74.39;100374.79;113672;1200;64474;-83
2021/03/29 03:51:43;;;;;;;;;;;;;;;1.82;74.59;100376.59;113643;1207;64445;-83
2021/03/29 03:54:12;;;;;;;153.27;99.23;;;;;;;1.81;74.57;100378.34;113574;1199;64394;-82
2021/03/29 03:56:40;;;;;;;148.60;94.33;;;;;;;1.88;74.83;100372.16;113653;1200;64468;-83
2021/03/29 03:59:09;;;;;;;154.20;97.75;;;;;;;1.97;74.81;100368.56;113663;1200;64414;-81
2021/03/29 04:01:39;;;;;;;169.07;105.73;;;;;;;2.09;75.03;100365.81;113679;1200;64387;-83
2021/03/29 04:04:05;;;;;;;166.68;111.23;;;;;;;2.14;75.21;100369.27;113554;1199;64375;-83
2021/03/29 04:06:32;;;;;;;173.83;111.60;;;;;;;2.19;75.22;100363.97;113650;1200;64385;-81
2021/03/29 04:08:59;;;;;;;172.80;114.80;;;;;;;2.21;75.07;100362.17;113639;1200;64470;-82
2021/03/29 04:11:28;;;;;;;164.10;112.67;;;;;;;2.26;75.08;100363.00;113647;1199;64369;-82
2021/03/29 04:13:54;;;;;;;170.20;110.67;;;;;;;2.31;74.98;100373.47;113645;1200;64372;-82
2021/03/29 04:16:21;;;;;;;164.55;111.75;;;;;;;2.33;75.19;100369.94;113636;1200;64813;-83
2021/03/29 04:18:47;;;;;;;157.00;109.43;;;;;;;2.36;74.95;100383.05;113586;1200;64555;-83
2021/03/29 04:21:15;;;;;;;138.87;100.53;;;;;;;2.45;75.20;100378.57;113674;1200;64496;-82
2021/03/29 04:23:42;;;;;;;130.25;89.55;;;;;;;2.53;75.15;100379.38;113618;1200;64384;-82
2021/03/29 04:26:09;;;;;;;124.00;84.70;;;;;;;2.62;75.24;100380.12;113674;1199;64474;-82
2021/03/29 04:28:35;;;;;;;136.47;96.00;;;;;;;2.74;75.16;100388.75;113626;1200;64372;-82
2021/03/29 04:31:02;;;;;;;143.70;101.60;;;;;;;2.83;75.25;100394.77;113639;1200;64468;-82
2021/03/29 04:33:28;;;;;;;134.80;98.83;;;;;;;2.80;75.14;100399.22;113607;1199;64387;-82
2021/03/29 04:35:55;;;;;;;144.87;96.53;;;;;;;2.74;75.20;100391.38;113653;1200;64372;-83
2021/03/29 04:38:22;;;;;;;154.80;115.10;;;;;;;2.75;75.07;100390.51;113674;1199;64416;-83
2021/03/29 04:40:48;;;;;;;153.45;112.70;;;;;;;2.75;75.04;100382.61;113616;1200;64551;-83
2021/03/29 04:43:16;;;;;;;141.65;98.90;;;;;;;2.80;75.00;100383.42;113582;1199;64442;-82
2021/03/29 04:45:43;;;;;;;127.67;89.67;;;;;;;2.85;74.99;100385.10;113627;1200;64317;-83
2021/03/29 04:48:10;;;;;;;125.00;86.70;;;;;;;2.91;75.03;100386.78;113602;1200;64391;-82
2021/03/29 04:50:37;;;;;;;115.20;79.65;;;;;;;2.95;75.33;100375.33;113623;1200;64375;-83
2021/03/29 04:53:04;;;;;;;119.70;82.50;;;;;;;3.07;75.19;100380.40;113624;1199;64417;-82
2021/03/29 04:55:30;;;;;;;130.30;90.70;;;;;;;3.15;75.18;100384.70;113648;1199;64439;-82
2021/03/29 04:57:57;;;;;;;132.75;94.00;;;;;;;3.17;75.26;100393.45;113632;1199;64362;-83
2021/03/29 05:00:24;;;;;;;138.00;92.30;;;;;;;3.19;75.33;100386.41;113616;1199;64431;-83
2021/03/29 05:02:50;;;;;;;137.45;97.25;;;;;;;3.24;75.08;100389.85;113684;1199;64357;-83
2021/03/29 05:05:17;;;;;;;138.63;97.40;;;;;;;3.27;75.16;100389.80;113678;1199;64378;-83
2021/03/29 05:07:45;;;;;;;126.97;92.90;;;;;;;3.34;75.24;100403.73;113673;1199;64547;-83
2021/03/29 05:10:13;;;;;;;125.33;89.17;;;;;;;3.38;75.24;100398.41;113653;1200;64468;-83
2021/03/29 05:12:40;;;;;;;121.33;84.47;;;;;;;3.42;75.40;100394.84;113647;1200;64378;-83
2021/03/29 05:15:08;;;;;;;111.65;80.50;;;;;;;3.51;75.33;100388.55;113615;1199;64570;-83
2021/03/29 05:17:35;;;;;;;117.17;83.80;;;;;;;3.60;75.24;100380.48;113664;1200;64404;-83
2021/03/29 05:20:05;;;;;;;122.50;89.05;;;;;;;3.68;75.16;100375.09;113622;1200;64542;-83
2021/03/29 05:22:32;;;;;;;121.00;86.50;;;;;;;3.73;75.26;100382.02;113659;1200;64420;-83
2021/03/29 05:24:58;;;;;;;115.95;85.90;;;;;;;3.80;75.35;100380.16;113657;1200;64346;-83
2021/03/29 05:27:25;;;;;;;122.53;90.83;;;;;;;3.88;75.02;100383.54;113577;1200;64371;-83
2021/03/29 05:29:53;;;;;;;117.53;86.33;;;;;;;3.95;75.22;100379.05;113631;1199;64704;-83
2021/03/29 05:32:25;;;;;;;116.87;86.20;;;;;;;4.03;75.06;100368.33;113640;1199;64359;-84
2021/03/29 05:34:55;;;;;;;109.03;78.40;;;;;;;4.11;75.06;100377.00;113641;1199;64493;-83
2021/03/29 05:37:23;;;;;;;113.85;84.25;;;;;;;4.21;74.84;100388.23;113652;1200;64403;-83
2021/03/29 05:39:52;;;;;;;119.70;92.37;;;;;;;4.35;74.86;100383.58;113616;1200;64458;-82
2021/03/29 05:42:20;;;;;;;135.00;104.90;;;;;;;4.48;74.89;100381.58;113674;1200;64359;-83
2021/03/29 05:44:51;;;;;;;140.20;106.50;;;;;;;4.60;74.76;100381.31;113661;1200;64535;-84
2021/03/29 05:47:17;;;;;;;134.87;106.30;;;;;;;4.69;74.77;100375.86;113648;1199;64541;-84
2021/03/29 05:49:44;;;;;;;135.40;104.75;;;;;;;4.74;74.89;100381.91;113649;1200;64432;-83
2021/03/29 05:52:11;;;;;;;129.40;100.00;;;;;;;4.79;74.58;100387.08;113634;1200;64403;-82
2021/03/29 05:54:39;;;;;;;122.33;93.87;;;;;;;4.85;74.39;100392.25;113649;1200;64378;-84
2021/03/29 05:57:06;;;;;;;105.50;81.23;;;;;;;4.88;74.16;100388.67;113575;1199;64529;-84
2021/03/29 06:02:00;;;;;;;106.60;78.17;;;;;;;5.01;74.35;100382.23;113666;1199;64349;-83
2021/03/29 06:04:50;;;;;;;111.20;83.45;;;;;;;5.15;74.02;100382.77;113642;1200;64343;-84
2021/03/29 06:07:23;;;;;;;112.77;88.37;;;;;;;5.34;73.60;100382.36;113582;1199;64477;-83
2021/03/29 06:09:51;;;;;;;136.55;102.60;;;;;;;5.47;73.75;100375.88;113615;1200;64477;-83
2021/03/29 06:12:20;;;;;;;127.35;100.60;;;;;;;5.61;73.41;100379.08;113647;1199;64430;-83
2021/03/29 06:14:57;;;;;;;133.90;102.50;;;;;;;5.79;73.03;100374.22;113656;1200;64388;-83
2021/03/29 06:17:24;;;;;;;123.17;92.93;;;;;;;5.93;72.86;100380.04;113595;1199;64429;-83
2021/03/29 06:19:58;;;;;;;128.75;92.10;;;;;;;6.03;72.30;100378.04;113584;1199;64751;-83
2021/03/29 06:22:28;;;;;;;121.05;87.85;;;;;;;6.15;72.09;100375.08;113528;1200;64500;-85
2021/03/29 06:25:05;;;;;;;123.50;92.60;;;;;;;6.27;71.92;100376.55;113690;1200;64396;-82
2021/03/29 06:27:44;;;;;;;120.83;92.83;;;;;;;6.39;72.06;100381.48;113715;1199;64452;-82
2021/03/29 06:30:33;;;;;;;119.20;91.10;;;;;;;6.48;71.49;100381.25;113624;1200;64356;-83
2021/03/29 06:33:18;;;;;;;119.60;90.80;;;;;;;6.52;71.74;100382.02;113647;1200;64362;-82
2021/03/29 06:35:54;;;;;;;117.13;84.20;;;;;;;6.54;71.51;100377.55;113623;1200;64359;-82
2021/03/29 06:38:29;;;;;;;120.43;87.27;;;;;;;6.56;71.24;100386.33;113713;1200;64289;-82
2021/03/29 06:40:58;;;;;;;117.43;86.87;;;;;;;6.60;71.35;100378.23;113680;1200;64343;-82
2021/03/29 06:43:37;;;;;;;105.13;79.10;;;;;;;6.68;71.25;100379.80;113629;1200;64365;-82
2021/03/29 06:46:21;;;;;;;99.55;74.25;;;;;;;6.77;71.35;100382.20;113673;1200;64387;-82
2021/03/29 06:48:48;;;;;;;97.03;70.30;;;;;;;6.88;70.96;100384.53;113632;1200;64420;-83
2021/03/29 06:51:22;;;;;;;105.03;73.30;;;;;;;7.02;70.90;100384.98;113628;1199;64523;-83
2021/03/29 06:54:05;;;;;;;102.73;75.93;;;;;;;7.19;70.86;100379.19;113582;1199;64407;-83
2021/03/29 06:56:33;;;;;;;95.43;74.27;;;;;;;7.34;70.56;100385.77;113700;1200;64320;-83
2021/03/29 06:59:09;;;;;;;101.77;74.60;;;;;;;7.46;70.49;100378.30;113698;1199;64423;-83
2021/03/29 07:01:46;;;;;;;98.97;75.47;;;;;;;7.58;70.12;100382.36;113707;1199;64388;-84
2021/03/29 07:04:14;;;;;;;102.70;78.10;;;;;;;7.73;69.89;100380.97;113790;1199;64442;-83
2021/03/29 07:06:43;;;;;;;105.83;79.53;;;;;;;7.87;69.82;100369.89;113726;1199;64375;-83
2021/03/29 07:09:10;;;;;;;99.50;75.53;;;;;;;8.02;69.49;100374.68;113730;1200;64346;-82
2021/03/29 07:11:39;;;;;;;100.70;75.25;;;;;;;8.11;69.11;100381.48;113641;1200;64369;-83
2021/03/29 07:14:07;;;;;;;127.83;88.67;;;;;;;8.19;68.98;100382.08;113582;1200;64375;-83
2021/03/29 07:16:35;;;;;;;121.67;84.37;;;;;;;8.33;69.04;100377.14;113692;1199;64486;-84
2021/03/29 07:19:07;;;;;;;96.40;71.70;;;;;;;8.48;68.91;100377.56;113735;1200;64378;-84
2021/03/29 07:21:36;;;;;;;99.97;72.40;;;;;;;8.68;68.68;100379.47;113730;1199;64417;-84
2021/03/29 07:24:02;;;;;;;94.60;71.85;;;;;;;8.90;68.48;100372.44;113772;1199;64349;-84
2021/03/29 07:26:34;;;;;;;97.40;74.35;;;;;;;9.07;68.22;100387.73;113820;1199;64503;-83
2021/03/29 07:29:18;;;;;;;104.60;77.67;;;;;;;9.22;67.94;100380.97;113731;1199;64382;-83
2021/03/29 07:31:49;;;;;;;101.07;77.77;;;;;;;9.30;67.73;100370.89;113931;1200;64353;-85
2021/03/29 07:34:18;;;;;;;105.15;79.10;;;;;;;9.37;67.41;100379.48;113760;1199;64449;-84
2021/03/29 07:36:50;;;;;;;108.55;80.20;;;;;;;9.44;67.39;100383.64;113744;1199;64384;-84
2021/03/29 07:39:38;;;;;;;104.20;76.20;;;;;;;9.58;67.13;100380.41;113754;1199;64411;-84
2021/03/29 07:42:23;;;;;;;96.33;75.40;;;;;;;9.68;66.85;100373.79;113694;1199;64478;-84
2021/03/29 07:45:01;;;;;;;90.60;65.40;;;;;;;9.76;66.80;100373.47;113640;1199;64377;-84
2021/03/29 07:47:43;;;;;;;80.37;60.90;;;;;;;9.84;66.74;100374.88;113605;1200;64317;-83
2021/03/29 07:50:15;;;;;;;87.50;60.47;;;;;;;9.92;66.69;100381.69;113702;1199;64427;-84
2021/03/29 07:52:47;;;;;;;88.53;62.03;;;;;;;9.94;66.71;100372.70;113776;1200;64475;-85
2021/03/29 07:55:37;;;;;;;80.60;58.00;;;;;;;10.06;66.44;100374.86;113630;1199;64515;-84
2021/03/29 07:58:07;;;;;;;83.57;55.27;;;;;;;10.22;66.19;100379.53;113605;1199;64359;-84
2021/03/29 08:00:34;;;;;;;79.20;53.07;;;;;;;10.40;66.02;100362.77;113847;1200;64351;-84
2021/03/29 08:03:22;;;;;;;74.80;49.63;;;;;;;10.59;65.75;100367.28;113648;1199;64340;-84
2021/03/29 08:05:50;;;;;;;60.23;38.57;;;;;;;10.73;64.76;100373.70;113614;1199;64567;-83
2021/03/29 08:08:26;;;;;;;61.40;38.60;;;;;;;10.86;64.34;100367.81;113757;1199;64407;-84
2021/03/29 08:11:16;;;;;;;59.33;35.23;;;;;;;11.01;64.06;100366.25;113785;1200;64413;-83
2021/03/29 08:13:52;;;;;;;50.37;32.30;;;;;;;11.12;63.32;100371.94;113680;1199;64381;-83
2021/03/29 08:16:22;;;;;;;44.77;26.50;;;;;;;11.23;62.55;100369.63;113662;1200;64323;-86
2021/03/29 08:19:18;;;;;;;26.57;17.17;;;;;;;11.34;61.48;100374.45;113748;1199;64387;-83
2021/03/29 08:21:54;;;;;;;26.77;15.97;;;;;;;11.49;60.81;100368.38;113656;1199;64372;-82
2021/03/29 08:24:31;;;;;;;23.25;13.50;;;;;;;11.57;60.03;100363.52;113631;1200;64356;-84
2021/03/29 08:27:00;;;;;;;20.47;11.40;;;;;;;11.63;59.36;100368.55;113682;1200;64723;-82
2021/03/29 08:29:30;;;;;;;19.43;11.70;;;;;;;11.73;58.13;100365.44;113638;1200;64465;-83
2021/03/29 08:32:25;;;;;;;24.15;12.95;;;;;;;11.88;58.36;100359.36;113685;1200;64375;-83
2021/03/29 08:35:17;;;;;;;17.65;12.00;;;;;;;12.15;57.90;100348.20;113707;1200;64410;-83
2021/03/29 08:37:52;;;;;;;19.00;11.57;;;;;;;12.30;56.17;100353.61;113677;1200;64407;-83
2021/03/29 08:40:24;;;;;;;17.90;11.53;;;;;;;12.42;55.42;100353.91;113672;1200;64401;-81
2021/03/29 08:42:55;;;;;;;22.30;12.47;;;;;;;12.55;54.13;100354.13;113682;1199;64490;-82
2021/03/29 08:45:24;;;;;;;17.50;11.65;;;;;;;12.73;55.51;100359.34;113643;1199;64433;-83
2021/03/29 08:47:54;;;;;;;17.67;10.77;;;;;;;12.97;55.02;100358.95;113668;1199;64487;-83
2021/03/29 08:50:24;;;;;;;18.00;10.05;;;;;;;13.19;54.77;100363.97;113653;1200;64394;-83
2021/03/29 08:53:18;;;;;;;18.23;10.30;;;;;;;13.38;53.85;100353.16;113674;1200;64894;-81
2021/03/29 08:55:45;;;;;;;16.27;10.77;;;;;;;13.51;53.72;100359.53;113902;1199;64378;-82
2021/03/29 08:58:12;;;;;;;12.90;9.13;;;;;;;13.58;53.15;100355.52;113942;1200;64449;-82
2021/03/29 09:00:42;;;;;;;12.05;6.75;;;;;;;13.60;50.92;100353.63;113854;1200;64483;-81
2021/03/29 09:03:19;;;;;;;11.83;6.00;;;;;;;13.49;51.58;100357.89;113752;1200;64403;-82
2021/03/29 09:05:46;;;;;;;9.85;5.25;;;;;;;13.39;51.05;100368.25;113805;1200;64333;-82
2021/03/29 09:08:13;;;;;;;8.07;4.87;;;;;;;13.32;50.82;100358.83;113751;1199;64387;-81
2021/03/29 09:10:43;;;;;;;6.73;4.27;;;;;;;13.27;48.52;100363.58;113634;1199;64423;-82
2021/03/29 09:13:12;;;;;;;8.70;4.65;;;;;;;13.24;50.04;100353.88;113645;1200;64353;-82
2021/03/29 09:15:43;;;;;;;;;;;;;;;13.28;48.28;100355.47;113861;1207;64845;-81
2021/03/29 09:18:16;;;;;;;7.78;5.20;;;;;;;13.30;49.93;100358.08;113813;1199;64382;-81
2021/03/29 09:20:46;;;;;;;6.67;3.77;;;;;;;13.35;47.73;100359.55;113785;1199;64374;-81
2021/03/29 09:23:15;;;;;;;10.70;4.80;;;;;;;13.41;49.05;100355.65;113740;1200;64577;-81
2021/03/29 09:25:44;;;;;;;7.30;4.20;;;;;;;13.57;47.85;100351.14;113763;1199;64532;-82
2021/03/29 09:31:18;;;;;;;10.00;4.23;;;;;;;13.71;46.84;100353.00;113767;1199;64378;-82
2021/03/29 09:33:47;;;;;;;6.67;3.97;;;;;;;13.88;46.34;100353.86;113788;1199;64375;-81
2021/03/29 09:36:17;;;;;;;7.40;4.20;;;;;;;13.99;45.30;100354.94;113842;1199;64410;-82
2021/03/29 09:38:57;;;;;;;8.05;4.75;;;;;;;14.08;46.37;100350.84;113729;1200;64407;-81
2021/03/29 09:41:32;;;;;;;7.45;4.18;;;;;;;14.15;45.97;100352.20;113759;1199;64474;-84
2021/03/29 09:44:06;;;;;;;8.00;4.40;;;;;;;14.15;45.88;100352.20;113714;1199;64461;-81
2021/03/29 09:46:35;;;;;;;9.23;4.87;;;;;;;14.16;45.55;100347.70;113842;1200;64320;-82
2021/03/29 09:49:05;;;;;;;8.05;4.90;;;;;;;14.13;45.75;100345.20;113804;1200;64410;-82
2021/03/29 09:51:32;;;;;;;9.47;5.50;;;;;;;14.20;45.36;100344.75;113838;1199;64439;-82
2021/03/29 09:53:59;;;;;;;8.57;5.47;;;;;;;14.33;44.81;100349.38;113920;1199;64409;-82
2021/03/29 09:56:30;;;;;;;12.90;5.30;;;;;;;14.44;45.37;100342.39;113923;1199;64379;-83
2021/03/29 09:58:57;;;;;;;10.47;5.40;;;;;;;14.66;45.09;100349.14;113843;1199;64356;-82
2021/03/29 10:01:26;;;;;;;8.13;5.10;;;;;;;14.73;44.15;100342.44;113691;1200;64381;-81
2021/03/29 10:04:03;;;;;;;7.20;4.53;;;;;;;14.67;43.94;100342.83;113744;1200;64336;-83
2021/03/29 10:06:31;;;;;;;11.25;6.20;;;;;;;14.62;44.21;100344.94;113874;1200;64468;-82
2021/03/29 10:09:02;;;;;;;10.80;5.23;;;;;;;14.59;43.95;100345.13;114027;1199;64439;-82
2021/03/29 10:11:47;;;;;;;6.93;5.50;;;;;;;14.59;44.67;100342.45;113770;1200;64391;-82
2021/03/29 10:14:16;;;;;;;9.20;5.10;;;;;;;14.62;42.65;100343.11;113873;1200;64372;-82
2021/03/29 10:16:48;;;;;;;8.83;5.10;;;;;;;14.65;44.25;100348.28;113725;1199;64503;-82
2021/03/29 10:19:21;;;;;;;8.85;5.70;;;;;;;14.77;44.07;100346.67;113548;1199;64375;-82
2021/03/29 10:22:04;;;;;;;9.97;5.13;;;;;;;14.78;42.66;100350.20;113697;1200;64378;-83
2021/03/29 10:24:37;;;;;;;8.95;5.10;;;;;;;14.83;42.71;100340.91;113773;1199;64381;-81
2021/03/29 10:27:08;;;;;;;8.77;5.00;;;;;;;14.95;43.12;100339.25;113685;1199;64465;-84
2021/03/29 10:29:39;;;;;;;12.17;5.97;;;;;;;15.12;43.25;100340.88;113722;1200;64356;-81
2021/03/29 10:32:16;;;;;;;9.40;5.43;;;;;;;15.15;41.90;100341.53;113760;1200;64388;-81
2021/03/29 10:34:45;;;;;;;8.93;4.80;;;;;;;15.22;41.47;100336.64;113610;1199;64458;-80
2021/03/29 10:37:22;;;;;;;10.57;5.97;;;;;;;15.27;42.22;100341.69;113708;1200;64400;-82
2021/03/29 10:39:50;;;;;;;9.33;5.93;;;;;;;15.40;42.70;100339.07;113583;1200;64561;-81
2021/03/29 10:42:19;;;;;;;10.33;5.20;;;;;;;15.50;41.44;100338.36;113759;1200;64311;-81
2021/03/29 10:44:47;;;;;;;9.57;5.43;;;;;;;15.63;41.95;100334.88;113707;1200;64435;-82
2021/03/29 10:47:14;;;;;;;9.90;5.30;;;;;;;15.73;42.03;100334.19;113628;1200;64394;-80
2021/03/29 10:49:42;;;;;;;8.80;5.30;;;;;;;15.79;42.47;100328.39;113618;1199;64355;-81
2021/03/29 10:52:09;;;;;;;12.03;6.53;;;;;;;15.91;41.49;100325.86;113647;1199;64561;-81
2021/03/29 10:54:36;;;;;;;7.57;5.40;;;;;;;15.94;40.94;100328.34;113615;1200;64487;-81
2021/03/29 10:57:04;;;;;;;8.97;4.93;;;;;;;15.93;40.80;100330.17;113580;1200;64384;-82
2021/03/29 10:59:30;;;;;;;9.10;4.90;;;;;;;15.99;41.83;100329.74;113638;1199;64311;-82
2021/03/29 11:01:58;;;;;;;7.70;4.63;;;;;;;16.06;41.66;100324.82;113691;1199;64375;-82
2021/03/29 11:04:25;;;;;;;7.20;4.60;;;;;;;16.04;41.45;100320.52;113654;1199;64391;-82
2021/03/29 11:06:51;;;;;;;7.60;4.67;;;;;;;15.98;40.71;100325.34;113581;1199;64420;-82
2021/03/29 11:09:18;;;;;;;8.43;4.97;;;;;;;15.99;41.15;100332.43;113622;1200;64368;-81
2021/03/29 11:11:45;;;;;;;9.40;4.90;;;;;;;15.98;40.80;100332.52;113584;1199;64416;-81
2021/03/29 11:14:11;;;;;;;7.60;4.60;;;;;;;15.97;41.35;100328.13;113704;1199;64372;-82
2021/03/29 11:16:38;;;;;;;7.33;4.27;;;;;;;15.96;40.95;100321.03;113625;1199;64503;-82
2021/03/29 11:19:05;;;;;;;9.77;4.33;;;;;;;15.99;41.43;100328.88;113585;1199;64343;-82
2021/03/29 11:21:33;;;;;;;9.53;4.57;;;;;;;15.99;41.21;100316.30;113655;1199;64388;-81
2021/03/29 11:24:00;;;;;;;7.10;4.20;;;;;;;16.05;40.87;100316.84;113633;1199;64362;-81
2021/03/29 11:26:28;;;;;;;6.80;3.80;;;;;;;16.04;41.79;100315.99;113588;1200;64455;-82